Time,TemperatureF,DewpointF,PressureIn,WindDirection,WindDirectionDegrees,WindSpeedMPH,WindSpeedGustMPH,Humidity,HourlyPrecipIn,Conditions,Clouds,dailyrainin,SoftwareType,DateUTC
2013-01-26 00:22:00,44.5,44.2,25.02,WSW,249,10.0,-999.0,99,-99.99,,,-99.99,dwt +perl,2013-01-26 08:22:00,
2013-01-26 00:29:00,44.5,44.2,25.02,WSW,249,10.0,-999.0,99,-99.99,,,-99.99,dwt +perl,2013-01-26 08:29:00,
2013-01-26 01:22:00,43.9,43.6,25.01,West,268,7.0,-999.0,99,-99.99,,,-99.99,dwt +perl,2013-01-26 09:22:00,
2013-01-26 01:29:00,43.9,43.6,25.01,West,268,7.0,-999.0,99,-99.99,,,-99.99,dwt +perl,2013-01-26 09:29:00,
2013-01-26 02:22:00,43.2,42.9,25.01,West,280,5.0,-999.0,99,-99.99,,,-99.99,dwt +perl,2013-01-26 10:22:00,
2013-01-26 02:29:00,43.2,42.9,25.01,West,280,5.0,-999.0,99,-99.99,,,-99.99,dwt +perl,2013-01-26 10:29:00,
2013-01-26 03:02:00,43.1,42.8,25.00,West,274,4.0,-999.0,99,-99.99,,,-99.99,dwt +perl,2013-01-26 11:02:00,
2013-01-26 03:04:00,43.1,42.8,25.00,WSW,256,5.0,-999.0,99,-99.99,,,-99.99,dwt +perl,2013-01-26 11:04:00,
2013-01-26 03:09:00,43.1,42.8,25.00,West,274,4.0,-999.0,99,-99.99,,,-99.99,dwt +perl,2013-01-26 11:09:00,
2013-01-26 04:52:00,42.1,41.8,24.99,WNW,299,5.0,-999.0,99,-99.99,,,-99.99,dwt +perl,2013-01-26 12:52:00,
2013-01-26 04:59:00,42.1,41.8,24.99,WNW,299,5.0,-999.0,99,-99.99,,,-99.99,dwt +perl,2013-01-26 12:59:00,
2013-01-26 08:37:00,41.7,41.4,24.99,WSW,249,5.0,-999.0,99,-99.99,,,-99.99,dwt +perl,2013-01-26 16:37:00,
2013-01-26 08:39:00,41.6,41.6,24.99,WSW,254,4.0,-999.0,100,-99.99,,,-99.99,dwt +perl,2013-01-26 16:39:00,
2013-01-26 08:44:00,41.7,41.4,24.99,WSW,249,5.0,-999.0,99,-99.99,,,-99.99,dwt +perl,2013-01-26 16:44:00,
2013-01-26 09:07:00,41.6,41.6,24.99,NW,319,4.0,-999.0,100,-99.99,,,-99.99,dwt +perl,2013-01-26 17:07:00,
2013-01-26 09:14:00,41.6,41.6,24.99,NW,319,4.0,-999.0,100,-99.99,,,-99.99,dwt +perl,2013-01-26 17:14:00,
2013-01-26 09:57:00,42.0,42.0,25.00,West,270,8.0,-999.0,100,-99.99,,,-99.99,dwt +perl,2013-01-26 17:57:00,
2013-01-26 10:04:00,42.0,42.0,25.00,West,270,8.0,-999.0,100,-99.99,,,-99.99,dwt +perl,2013-01-26 18:04:00,
2013-01-26 12:39:00,41.4,41.4,24.98,WSW,239,9.0,-999.0,100,-99.99,,,-99.99,dwt +perl,2013-01-26 20:39:00,
2013-01-26 12:44:00,41.4,41.4,24.98,WSW,241,7.0,-999.0,100,-99.99,,,-99.99,dwt +perl,2013-01-26 20:44:00,
2013-01-26 12:49:00,41.4,41.4,24.98,WSW,239,9.0,-999.0,100,-99.99,,,-99.99,dwt +perl,2013-01-26 20:49:00,
2013-01-26 12:54:00,41.7,41.4,24.98,WSW,241,8.0,-999.0,99,-99.99,,,-99.99,dwt +perl,2013-01-26 20:54:00,
2013-01-26 12:59:00,42.0,42.0,24.97,SW,229,7.0,-999.0,100,-99.99,,,-99.99,dwt +perl,2013-01-26 20:59:00,
2013-01-26 13:04:00,42.6,42.6,24.98,WSW,237,8.0,-999.0,100,-99.99,,,-99.99,dwt +perl,2013-01-26 21:04:00,
2013-01-26 13:09:00,43.4,43.4,24.97,South,191,5.0,-999.0,100,-99.99,,,-99.99,dwt +perl,2013-01-26 21:09:00,
2013-01-26 13:12:00,43.1,43.1,24.97,SW,229,2.0,-999.0,100,-99.99,,,-99.99,dwt +perl,2013-01-26 21:12:00,
2013-01-26 13:14:00,43.7,43.7,24.97,SW,235,7.0,-999.0,100,-99.99,,,-99.99,dwt +perl,2013-01-26 21:14:00,
2013-01-26 13:19:00,43.1,43.1,24.97,SW,229,2.0,-999.0,100,-99.99,,,-99.99,dwt +perl,2013-01-26 21:19:00,
2013-01-26 13:29:00,44.2,44.2,24.97,SW,227,7.0,-999.0,100,-99.99,,,-99.99,dwt +perl,2013-01-26 21:29:00,
2013-01-26 13:34:00,44.2,43.9,24.97,SSW,210,7.0,-999.0,99,-99.99,,,-99.99,dwt +perl,2013-01-26 21:34:00,
2013-01-26 13:39:00,44.4,44.4,24.97,SW,233,8.0,-999.0,100,-99.99,,,-99.99,dwt +perl,2013-01-26 21:39:00,
2013-01-26 13:44:00,43.7,43.7,24.97,SW,231,2.0,-999.0,100,-99.99,,,-99.99,dwt +perl,2013-01-26 21:44:00,
2013-01-26 13:49:00,43.6,43.6,24.97,WSW,249,7.0,-999.0,100,-99.99,,,-99.99,dwt +perl,2013-01-26 21:49:00,
2013-01-26 13:54:00,42.6,42.3,24.97,WSW,246,5.0,-999.0,99,-99.99,,,-99.99,dwt +perl,2013-01-26 21:54:00,
2013-01-26 13:59:00,42.0,41.7,24.97,SW,233,9.0,-999.0,99,-99.99,,,-99.99,dwt +perl,2013-01-26 21:59:00,
2013-01-26 14:04:00,41.7,41.4,24.97,WSW,237,8.0,-999.0,99,-99.99,,,-99.99,dwt +perl,2013-01-26 22:04:00,
2013-01-26 14:09:00,41.6,41.3,24.97,WSW,238,7.0,-999.0,99,-99.99,,,-99.99,dwt +perl,2013-01-26 22:09:00,
2013-01-26 14:14:00,42.0,41.7,24.97,WSW,240,6.0,-999.0,99,-99.99,,,-99.99,dwt +perl,2013-01-26 22:14:00,
2013-01-26 14:19:00,42.9,42.6,24.97,SW,235,6.0,-999.0,99,-99.99,,,-99.99,dwt +perl,2013-01-26 22:19:00,
2013-01-26 14:24:00,43.3,43.0,24.97,SW,230,6.0,-999.0,99,-99.99,,,-99.99,dwt +perl,2013-01-26 22:24:00,
2013-01-26 14:29:00,43.7,43.4,24.97,SW,223,4.0,-999.0,99,-99.99,,,-99.99,dwt +perl,2013-01-26 22:29:00,
2013-01-26 14:34:00,43.2,42.9,24.98,SW,229,6.0,-999.0,99,-99.99,,,-99.99,dwt +perl,2013-01-26 22:34:00,
2013-01-26 14:37:00,42.4,42.1,24.97,SW,218,7.0,-999.0,99,-99.99,,,-99.99,dwt +perl,2013-01-26 22:37:00,
2013-01-26 14:39:00,42.8,42.5,24.98,SW,222,4.0,-999.0,99,-99.99,,,-99.99,dwt +perl,2013-01-26 22:39:00,
2013-01-26 14:44:00,42.4,42.1,24.97,SW,218,7.0,-999.0,99,-99.99,,,-99.99,dwt +perl,2013-01-26 22:44:00,
2013-01-26 14:52:00,40.6,40.1,24.97,SW,222,5.0,-999.0,98,-99.99,,,-99.99,dwt +perl,2013-01-26 22:52:00,
2013-01-26 14:54:00,41.5,41.2,24.97,SW,222,8.0,-999.0,99,-99.99,,,-99.99,dwt +perl,2013-01-26 22:54:00,
2013-01-26 14:59:00,40.6,40.1,24.97,SW,222,5.0,-999.0,98,-99.99,,,-99.99,dwt +perl,2013-01-26 22:59:00,
2013-01-26 15:07:00,39.0,38.5,24.97,SW,216,10.0,-999.0,98,-99.99,,,-99.99,dwt +perl,2013-01-26 23:07:00,
2013-01-26 15:14:00,39.0,38.5,24.97,SW,216,10.0,-999.0,98,-99.99,,,-99.99,dwt +perl,2013-01-26 23:14:00,
2013-01-26 15:59:00,36.4,35.9,24.97,SW,228,5.0,-999.0,98,-99.99,,,-99.99,dwt +perl,2013-01-26 23:59:00,
2013-01-26 16:04:00,36.0,35.5,24.98,SW,221,6.0,-999.0,98,-99.99,,,-99.99,dwt +perl,2013-01-27 00:04:00,
2013-01-26 16:09:00,36.0,35.7,24.97,SW,233,7.0,-999.0,99,-99.99,,,-99.99,dwt +perl,2013-01-27 00:09:00,
2013-01-26 16:12:00,35.3,35.0,24.98,SW,227,6.0,-999.0,99,-99.99,,,-99.99,dwt +perl,2013-01-27 00:12:00,
2013-01-26 16:14:00,35.3,35.0,24.98,SW,227,6.0,-999.0,99,-99.99,,,-99.99,dwt +perl,2013-01-27 00:14:00,
2013-01-26 16:19:00,35.3,35.0,24.98,SW,227,6.0,-999.0,99,-99.99,,,-99.99,dwt +perl,2013-01-27 00:19:00,
2013-01-26 16:22:00,35.7,35.4,24.98,SW,216,9.0,-999.0,99,-99.99,,,-99.99,dwt +perl,2013-01-27 00:22:00,
2013-01-26 16:29:00,35.7,35.4,24.98,SW,216,9.0,-999.0,99,-99.99,,,-99.99,dwt +perl,2013-01-27 00:29:00,
2013-01-26 16:42:00,39.2,38.9,24.97,SW,226,6.0,-999.0,99,-99.99,,,-99.99,dwt +perl,2013-01-27 00:42:00,
2013-01-26 16:44:00,38.9,38.6,24.97,SW,228,6.0,-999.0,99,-99.99,,,-99.99,dwt +perl,2013-01-27 00:44:00,
2013-01-26 16:49:00,39.2,38.9,24.97,SW,226,6.0,-999.0,99,-99.99,,,-99.99,dwt +perl,2013-01-27 00:49:00,
2013-01-26 18:02:00,30.9,30.6,24.99,WSW,237,7.0,-999.0,99,-99.99,,,-99.99,dwt +perl,2013-01-27 02:02:00,
2013-01-26 18:09:00,30.9,30.6,24.99,WSW,237,7.0,-999.0,99,-99.99,,,-99.99,dwt +perl,2013-01-27 02:09:00,
2013-01-26 18:17:00,33.6,33.1,24.99,WSW,238,5.0,-999.0,98,-99.99,,,-99.99,dwt +perl,2013-01-27 02:17:00,
2013-01-26 18:24:00,33.6,33.1,24.99,WSW,238,5.0,-999.0,98,-99.99,,,-99.99,dwt +perl,2013-01-27 02:24:00,
2013-01-26 18:37:00,31.1,30.6,25.00,WSW,246,6.0,-999.0,98,-99.99,,,-99.99,dwt +perl,2013-01-27 02:37:00,
2013-01-26 18:44:00,31.1,30.6,25.00,WSW,246,6.0,-999.0,98,-99.99,,,-99.99,dwt +perl,2013-01-27 02:44:00,
2013-01-26 18:54:00,34.9,31.4,25.00,WSW,256,5.0,-999.0,87,-99.99,,,-99.99,dwt +perl,2013-01-27 02:54:00,
2013-01-26 18:59:00,34.8,30.8,25.00,WSW,256,0.0,-999.0,85,-99.99,,,-99.99,dwt +perl,2013-01-27 02:59:00,
2013-01-26 19:04:00,35.9,27.1,25.00,WNW,294,0.0,-999.0,70,-99.99,,,-99.99,dwt +perl,2013-01-27 03:04:00,
2013-01-26 19:09:00,36.2,16.4,25.00,WNW,294,0.0,-999.0,44,-99.99,,,-99.99,dwt +perl,2013-01-27 03:09:00,
2013-01-26 19:14:00,36.0,24.3,25.00,WSW,251,0.0,-999.0,62,-99.99,,,-99.99,dwt +perl,2013-01-27 03:14:00,
2013-01-26 19:19:00,35.7,21.6,25.00,West,272,0.0,-999.0,56,-99.99,,,-99.99,dwt +perl,2013-01-27 03:19:00,
2013-01-26 19:22:00,30.1,27.8,25.00,WSW,252,0.0,-999.0,91,-99.99,,,-99.99,dwt +perl,2013-01-27 03:22:00,
2013-01-26 19:24:00,32.1,27.8,25.00,WSW,245,0.0,-999.0,84,-99.99,,,-99.99,dwt +perl,2013-01-27 03:24:00,
2013-01-26 19:29:00,30.1,27.8,25.00,WSW,252,0.0,-999.0,91,-99.99,,,-99.99,dwt +perl,2013-01-27 03:29:00,
2013-01-26 19:42:00,28.9,27.9,25.00,SW,236,0.0,-999.0,96,-99.99,,,-99.99,dwt +perl,2013-01-27 03:42:00,
2013-01-26 19:44:00,29.3,28.3,25.00,West,264,0.0,-999.0,96,-99.99,,,-99.99,dwt +perl,2013-01-27 03:44:00,
2013-01-26 19:49:00,28.9,27.9,25.00,SW,236,0.0,-999.0,96,-99.99,,,-99.99,dwt +perl,2013-01-27 03:49:00,
2013-01-26 19:59:00,29.1,28.4,25.01,WSW,255,0.0,-999.0,97,-99.99,,,-99.99,dwt +perl,2013-01-27 03:59:00,
2013-01-26 20:02:00,28.8,28.0,25.01,West,280,0.0,-999.0,97,-99.99,,,-99.99,dwt +perl,2013-01-27 04:02:00,
2013-01-26 20:04:00,29.3,28.5,25.01,WSW,243,0.0,-999.0,97,-99.99,,,-99.99,dwt +perl,2013-01-27 04:04:00,
2013-01-26 20:09:00,28.8,28.0,25.01,West,280,0.0,-999.0,97,-99.99,,,-99.99,dwt +perl,2013-01-27 04:09:00,
2013-01-26 20:19:00,28.6,27.9,25.00,WSW,245,0.0,-999.0,97,-99.99,,,-99.99,dwt +perl,2013-01-27 04:19:00,
2013-01-26 20:24:00,28.9,28.1,25.00,WSW,251,0.0,-999.0,97,-99.99,,,-99.99,dwt +perl,2013-01-27 04:24:00,
2013-01-26 20:29:00,29.0,28.2,25.00,West,263,0.0,-999.0,97,-99.99,,,-99.99,dwt +perl,2013-01-27 04:29:00,
2013-01-26 20:34:00,29.1,28.6,25.00,WSW,241,0.0,-999.0,98,-99.99,,,-99.99,dwt +perl,2013-01-27 04:34:00,
2013-01-26 20:39:00,28.7,28.2,25.00,WSW,251,0.0,-999.0,98,-99.99,,,-99.99,dwt +perl,2013-01-27 04:39:00,
2013-01-26 20:44:00,28.8,28.3,25.00,West,274,0.0,-999.0,98,-99.99,,,-99.99,dwt +perl,2013-01-27 04:44:00,
2013-01-26 20:49:00,28.8,28.3,25.01,WSW,252,0.0,-999.0,98,-99.99,,,-99.99,dwt +perl,2013-01-27 04:49:00,
2013-01-26 20:52:00,28.6,28.1,25.01,WSW,242,0.0,-999.0,98,-99.99,,,-99.99,dwt +perl,2013-01-27 04:52:00,
2013-01-26 20:54:00,28.7,28.2,25.01,West,262,0.0,-999.0,98,-99.99,,,-99.99,dwt +perl,2013-01-27 04:54:00,
2013-01-26 20:59:00,28.6,28.1,25.01,WSW,242,0.0,-999.0,98,-99.99,,,-99.99,dwt +perl,2013-01-27 04:59:00,
2013-01-26 21:07:00,28.9,28.4,25.01,WNW,301,0.0,-999.0,98,-99.99,,,-99.99,dwt +perl,2013-01-27 05:07:00,
2013-01-26 21:09:00,28.6,28.1,25.00,West,271,0.0,-999.0,98,-99.99,,,-99.99,dwt +perl,2013-01-27 05:09:00,
2013-01-26 21:14:00,28.9,28.4,25.01,WNW,301,0.0,-999.0,98,-99.99,,,-99.99,dwt +perl,2013-01-27 05:14:00,
2013-01-26 21:24:00,29.2,28.7,25.01,West,270,0.0,-999.0,98,-99.99,,,-99.99,dwt +perl,2013-01-27 05:24:00,
2013-01-26 21:29:00,29.0,28.5,25.01,WNW,286,0.0,-999.0,98,-99.99,,,-99.99,dwt +perl,2013-01-27 05:29:00,
2013-01-26 21:34:00,28.6,28.1,25.00,WNW,293,0.0,-999.0,98,-99.99,,,-99.99,dwt +perl,2013-01-27 05:34:00,
2013-01-26 21:39:00,28.1,27.6,25.00,WSW,240,0.0,-999.0,98,-99.99,,,-99.99,dwt +perl,2013-01-27 05:39:00,
2013-01-26 21:44:00,27.9,27.4,25.00,WSW,244,0.0,-999.0,98,-99.99,,,-99.99,dwt +perl,2013-01-27 05:44:00,
2013-01-26 21:49:00,27.9,27.4,25.01,West,263,0.0,-999.0,98,-99.99,,,-99.99,dwt +perl,2013-01-27 05:49:00,
2013-01-26 21:54:00,28.0,27.5,25.01,WSW,243,0.0,-999.0,98,-99.99,,,-99.99,dwt +perl,2013-01-27 05:54:00,
2013-01-26 21:59:00,28.2,27.7,25.01,West,279,0.0,-999.0,98,-99.99,,,-99.99,dwt +perl,2013-01-27 05:59:00,
2013-01-26 22:04:00,28.0,27.5,25.01,West,266,0.0,-999.0,98,-99.99,,,-99.99,dwt +perl,2013-01-27 06:04:00,
2013-01-26 22:09:00,28.1,27.6,25.01,West,261,0.0,-999.0,98,-99.99,,,-99.99,dwt +perl,2013-01-27 06:09:00,
2013-01-26 22:14:00,28.1,27.6,25.01,WNW,302,0.0,-999.0,98,-99.99,,,-99.99,dwt +perl,2013-01-27 06:14:00,
2013-01-26 22:19:00,28.0,27.5,25.01,WSW,252,0.0,-999.0,98,-99.99,,,-99.99,dwt +perl,2013-01-27 06:19:00,
2013-01-26 22:24:00,28.2,27.7,25.01,WNW,293,0.0,-999.0,98,-99.99,,,-99.99,dwt +perl,2013-01-27 06:24:00,
2013-01-26 22:29:00,28.2,27.7,25.01,West,260,0.0,-999.0,98,-99.99,,,-99.99,dwt +perl,2013-01-27 06:29:00,
2013-01-26 22:34:00,28.2,27.7,25.02,SW,232,0.0,-999.0,98,-99.99,,,-99.99,dwt +perl,2013-01-27 06:34:00,
2013-01-26 22:39:00,28.1,27.6,25.02,WSW,244,0.0,-999.0,98,-99.99,,,-99.99,dwt +perl,2013-01-27 06:39:00,
2013-01-26 22:42:00,28.0,27.5,25.01,West,262,0.0,-999.0,98,-99.99,,,-99.99,dwt +perl,2013-01-27 06:42:00,
2013-01-26 22:44:00,27.9,27.4,25.01,WNW,294,0.0,-999.0,98,-99.99,,,-99.99,dwt +perl,2013-01-27 06:44:00,
2013-01-26 22:49:00,28.0,27.5,25.01,West,262,0.0,-999.0,98,-99.99,,,-99.99,dwt +perl,2013-01-27 06:49:00,
2013-01-26 22:59:00,28.0,27.5,25.01,WSW,247,0.0,-999.0,98,-99.99,,,-99.99,dwt +perl,2013-01-27 06:59:00,
2013-01-26 23:04:00,27.7,27.2,25.02,WSW,250,0.0,-999.0,98,-99.99,,,-99.99,dwt +perl,2013-01-27 07:04:00,
2013-01-26 23:09:00,27.9,27.4,25.01,WNW,291,0.0,-999.0,98,-99.99,,,-99.99,dwt +perl,2013-01-27 07:09:00,
2013-01-26 23:14:00,28.0,27.5,25.02,WNW,287,0.0,-999.0,98,-99.99,,,-99.99,dwt +perl,2013-01-27 07:14:00,
2013-01-26 23:19:00,28.1,27.6,25.02,West,267,0.0,-999.0,98,-99.99,,,-99.99,dwt +perl,2013-01-27 07:19:00,
2013-01-26 23:24:00,27.9,27.4,25.02,West,270,0.0,-999.0,98,-99.99,,,-99.99,dwt +perl,2013-01-27 07:24:00,
2013-01-26 23:29:00,28.0,27.5,25.02,West,281,0.0,-999.0,98,-99.99,,,-99.99,dwt +perl,2013-01-27 07:29:00,
2013-01-26 23:34:00,28.1,27.6,25.02,West,270,0.0,-999.0,98,-99.99,,,-99.99,dwt +perl,2013-01-27 07:34:00,
2013-01-26 23:39:00,28.2,27.7,25.02,WSW,247,0.0,-999.0,98,-99.99,,,-99.99,dwt +perl,2013-01-27 07:39:00,
2013-01-26 23:44:00,28.0,27.5,25.02,West,262,0.0,-999.0,98,-99.99,,,-99.99,dwt +perl,2013-01-27 07:44:00,
2013-01-26 23:49:00,28.0,27.5,25.02,West,266,0.0,-999.0,98,-99.99,,,-99.99,dwt +perl,2013-01-27 07:49:00,
2013-01-26 23:54:00,27.9,27.4,25.02,WSW,240,0.0,-999.0,98,-99.99,,,-99.99,dwt +perl,2013-01-27 07:54:00,
2013-01-26 23:59:00,28.1,27.6,25.02,WSW,252,0.0,-999.0,98,-99.99,,,-99.99,dwt +perl,2013-01-27 07:59:00,